Time;durP1;ratioP1;P1;durP2;ratioP2;P2;SDS_P1;SDS_P2;PMS_P1;PMS_P2;Temp;Humidity;BMP_temperature;BMP_pressure;BME280_temperature;BME280_humidity;BME280_pressure;Samples;Min_cycle;Max_cycle;Signal;HPM_P1;HPM_P2
2022/02/17 00:01:24;;;;;;;0.40;0.40;;;;;;;11.59;79.98;94465.66;5077156;28;20258;-81
2022/02/17 00:03:51;;;;;;;0.43;0.43;;;;;;;11.55;80.46;94451.59;5076976;28;20208;-82
2022/02/17 00:06:17;;;;;;;0.90;0.50;;;;;;;11.58;80.86;94469.22;5076942;28;20223;-82
2022/02/17 00:08:45;;;;;;;0.40;0.40;;;;;;;11.61;82.02;94471.38;5077024;28;20216;-82
2022/02/17 00:11:11;;;;;;;0.47;0.47;;;;;;;11.61;82.50;94460.28;5076196;28;20229;-82
2022/02/17 00:13:37;;;;;;;0.50;0.50;;;;;;;11.48;84.10;94456.03;5077154;28;20200;-82
2022/02/17 00:16:04;;;;;;;0.50;0.50;;;;;;;11.48;85.61;94445.72;5076344;28;20250;-82
2022/02/17 00:18:31;;;;;;;0.53;0.43;;;;;;;11.40;87.18;94440.81;5075928;28;20201;-81
2022/02/17 00:20:57;;;;;;;0.40;0.40;;;;;;;11.37;87.81;94439.44;5076115;28;20224;-82
2022/02/17 00:23:24;;;;;;;0.40;0.40;;;;;;;11.35;88.15;94451.72;5076361;28;20197;-84
2022/02/17 00:25:52;;;;;;;0.40;0.40;;;;;;;11.43;87.31;94437.81;5076791;28;20204;-82
2022/02/17 00:28:18;;;;;;;0.40;0.40;;;;;;;11.36;87.28;94432.69;5075842;28;20725;-80
2022/02/17 00:30:45;;;;;;;0.50;0.50;;;;;;;11.39;87.29;94454.69;5075021;28;20205;-82
2022/02/17 00:33:11;;;;;;;0.40;0.40;;;;;;;11.42;87.17;94433.66;5076228;28;20247;-82
2022/02/17 00:35:38;;;;;;;0.40;0.40;;;;;;;11.47;86.43;94446.72;5075013;28;20653;-82
2022/02/17 00:38:04;;;;;;;0.40;0.40;;;;;;;11.46;85.52;94445.13;5075936;28;20208;-80
2022/02/17 00:40:31;;;;;;;0.93;0.50;;;;;;;11.51;85.36;94444.50;5075508;28;20209;-82
2022/02/17 00:42:58;;;;;;;0.40;0.40;;;;;;;11.54;84.10;94415.75;5074874;28;20228;-80
2022/02/17 00:45:25;;;;;;;0.47;0.47;;;;;;;11.57;83.23;94462.47;5075078;28;20425;-82
2022/02/17 00:47:51;;;;;;;1.23;0.40;;;;;;;11.66;82.96;94471.56;5075672;28;20213;-84
2022/02/17 00:50:18;;;;;;;0.40;0.40;;;;;;;11.72;82.12;94468.13;5075133;28;20197;-81
2022/02/17 00:52:45;;;;;;;0.50;0.50;;;;;;;11.75;81.71;94490.91;5074488;28;20236;-81
2022/02/17 00:55:11;;;;;;;0.77;0.50;;;;;;;11.79;80.73;94464.72;5074641;28;20201;-82
2022/02/17 00:57:37;;;;;;;0.40;0.40;;;;;;;11.80;80.87;94456.78;5075247;28;20730;-82
2022/02/17 01:00:07;;;;;;;0.40;0.40;;;;;;;11.85;79.86;94454.38;5075437;28;20224;-81
2022/02/17 01:02:33;;;;;;;0.60;0.40;;;;;;;11.90;79.83;94456.31;5074529;28;20667;-82
2022/02/17 01:05:00;;;;;;;0.40;0.40;;;;;;;11.94;79.62;94453.06;5074461;28;20208;-82
2022/02/17 01:07:27;;;;;;;0.40;0.40;;;;;;;11.91;79.00;94440.63;5075363;28;20204;-81
2022/02/17 01:09:53;;;;;;;0.30;0.30;;;;;;;11.88;78.54;94397.22;5075574;28;20203;-82
2022/02/17 01:12:19;;;;;;;0.40;0.40;;;;;;;11.92;78.52;94410.47;5073917;28;20589;-81
2022/02/17 01:14:46;;;;;;;0.40;0.40;;;;;;;12.01;78.19;94428.03;5074568;28;20278;-82
2022/02/17 01:17:13;;;;;;;0.40;0.40;;;;;;;12.06;78.47;94448.03;5074789;28;20330;-82
2022/02/17 01:19:40;;;;;;;0.50;0.50;;;;;;;12.01;78.09;94450.44;5074538;28;20205;-81
2022/02/17 01:22:06;;;;;;;0.40;0.40;;;;;;;12.02;78.25;94477.81;5074232;28;20746;-82
2022/02/17 01:24:33;;;;;;;0.40;0.40;;;;;;;12.05;77.83;94478.19;5074534;28;20204;-82
2022/02/17 01:26:59;;;;;;;0.40;0.40;;;;;;;12.05;77.85;94446.44;5073979;28;20261;-81
2022/02/17 01:29:25;;;;;;;0.30;0.30;;;;;;;12.07;77.54;94465.09;5074062;28;20209;-81
2022/02/17 01:31:52;;;;;;;0.40;0.40;;;;;;;12.06;77.30;94463.50;5073785;28;20274;-82
2022/02/17 01:34:19;;;;;;;0.40;0.40;;;;;;;12.06;76.83;94460.94;5074509;28;20766;-82
2022/02/17 01:36:46;;;;;;;0.30;0.30;;;;;;;12.08;76.92;94477.78;5074332;28;20230;-84
2022/02/17 01:39:12;;;;;;;0.40;0.40;;;;;;;12.01;76.85;94492.50;5074391;28;20410;-82
2022/02/17 01:41:39;;;;;;;0.50;0.50;;;;;;;12.03;76.87;94462.13;5073483;28;20259;-82
2022/02/17 01:44:05;;;;;;;1.07;0.50;;;;;;;12.03;76.96;94451.81;5073127;28;20201;-81
2022/02/17 01:46:34;;;;;;;0.93;0.40;;;;;;;12.10;76.30;94441.44;5073713;28;20265;-82
2022/02/17 01:49:00;;;;;;;0.40;0.40;;;;;;;12.10;75.99;94429.34;5074085;28;20759;-82
2022/02/17 01:51:30;;;;;;;0.40;0.40;;;;;;;12.10;75.28;94413.06;5074230;28;20761;-82
2022/02/17 01:53:57;;;;;;;0.40;0.40;;;;;;;12.11;75.00;94422.38;5073764;28;20231;-82
2022/02/17 01:56:23;;;;;;;0.40;0.40;;;;;;;12.10;74.92;94395.78;5074275;28;20227;-82
2022/02/17 01:58:50;;;;;;;0.40;0.40;;;;;;;12.15;74.82;94408.03;5074061;28;20201;-81
2022/02/17 02:01:16;;;;;;;0.40;0.40;;;;;;;12.20;74.31;94397.06;5073665;28;20228;-82
2022/02/17 02:03:43;;;;;;;0.40;0.40;;;;;;;12.19;74.09;94367.09;5073431;28;20200;-81
2022/02/17 02:06:09;;;;;;;0.30;0.30;;;;;;;12.13;73.69;94378.28;5073888;28;20205;-82
2022/02/17 02:08:37;;;;;;;0.40;0.40;;;;;;;12.20;73.27;94355.78;5073440;28;20765;-82
2022/02/17 02:11:04;;;;;;;0.40;0.40;;;;;;;12.15;72.44;94359.00;5073076;28;20224;-80
2022/02/17 02:13:31;;;;;;;0.30;0.30;;;;;;;12.25;72.28;94389.47;5073795;28;20642;-81
2022/02/17 02:15:58;;;;;;;0.30;0.30;;;;;;;12.28;71.05;94381.31;5073981;28;20200;-81
2022/02/17 02:18:26;;;;;;;0.50;0.40;;;;;;;12.30;70.22;94335.44;5073484;28;20552;-82
2022/02/17 02:20:55;;;;;;;0.50;0.50;;;;;;;12.36;69.93;94360.34;5073087;28;20247;-81
2022/02/17 02:23:22;;;;;;;0.37;0.37;;;;;;;12.39;69.66;94341.84;5073328;28;20208;-82
2022/02/17 02:25:51;;;;;;;0.30;0.30;;;;;;;12.41;69.22;94394.84;5073060;28;20270;-82
2022/02/17 02:28:19;;;;;;;0.30;0.30;;;;;;;12.49;68.21;94351.69;5073022;28;20561;-81
2022/02/17 02:30:45;;;;;;;0.50;0.50;;;;;;;12.56;68.22;94329.13;5072330;28;20204;-82
2022/02/17 02:33:12;;;;;;;0.40;0.40;;;;;;;12.56;68.03;94342.81;5073517;28;20251;-82
2022/02/17 02:35:38;;;;;;;0.40;0.40;;;;;;;12.59;67.17;94357.88;5073297;28;20224;-81
2022/02/17 02:38:07;;;;;;;0.40;0.40;;;;;;;12.58;67.08;94353.72;5074233;28;20244;-81
2022/02/17 02:40:33;;;;;;;0.67;0.40;;;;;;;12.61;66.79;94345.53;5078363;28;20204;-82
2022/02/17 02:42:59;;;;;;;0.40;0.40;;;;;;;12.61;66.76;94322.31;5079685;28;20255;-81
2022/02/17 02:45:26;;;;;;;0.40;0.40;;;;;;;12.61;66.53;94322.31;5074698;28;20196;-81
2022/02/17 02:47:52;;;;;;;0.50;0.50;;;;;;;12.70;66.50;94304.72;5074788;28;20213;-82
2022/02/17 02:50:19;;;;;;;0.50;0.50;;;;;;;12.70;66.36;94312.47;5074551;28;20211;-81
2022/02/17 02:52:45;;;;;;;0.30;0.30;;;;;;;12.73;65.79;94322.34;5074163;28;20274;-82
2022/02/17 02:55:13;;;;;;;0.50;0.50;;;;;;;12.70;65.60;94331.31;5078855;28;20204;-82
2022/02/17 02:57:39;;;;;;;0.73;0.40;;;;;;;12.71;65.98;94276.06;5080785;28;20204;-82
2022/02/17 03:00:08;;;;;;;0.40;0.40;;;;;;;12.66;65.69;94262.25;5081427;28;20635;-81
2022/02/17 03:02:35;;;;;;;0.40;0.40;;;;;;;12.67;65.33;94251.72;5079659;28;20260;-82
2022/02/17 03:05:01;;;;;;;0.50;0.50;;;;;;;12.66;65.43;94280.34;5080187;28;20224;-82
2022/02/17 03:07:28;;;;;;;0.53;0.40;;;;;;;12.69;65.19;94257.44;5080518;28;20211;-81
2022/02/17 03:09:54;;;;;;;0.40;0.40;;;;;;;12.70;65.14;94286.63;5080543;28;20273;-82
2022/02/17 03:12:22;;;;;;;0.43;0.43;;;;;;;12.68;64.95;94271.38;5079671;28;20274;-82
2022/02/17 03:14:48;;;;;;;0.40;0.40;;;;;;;12.66;64.69;94257.88;5080028;28;20200;-82
2022/02/17 03:17:15;;;;;;;0.40;0.40;;;;;;;12.67;64.93;94259.47;5079773;28;20207;-82
2022/02/17 03:19:41;;;;;;;0.40;0.40;;;;;;;12.68;64.35;94273.94;5080279;28;20262;-82
2022/02/17 03:22:07;;;;;;;0.30;0.30;;;;;;;12.65;64.37;94253.72;5079580;28;20645;-81
2022/02/17 03:24:34;;;;;;;0.40;0.40;;;;;;;12.69;63.97;94291.03;5079697;28;20245;-82
2022/02/17 03:27:00;;;;;;;0.40;0.40;;;;;;;12.68;64.12;94275.75;5080364;28;20713;-82
2022/02/17 03:29:28;;;;;;;1.03;0.40;;;;;;;12.68;64.00;94278.31;5079988;28;20618;-82
2022/02/17 03:31:55;;;;;;;0.30;0.30;;;;;;;12.65;63.88;94269.22;5079152;28;20228;-82
2022/02/17 03:34:21;;;;;;;0.40;0.40;;;;;;;12.64;63.94;94259.91;5079771;28;20580;-81
2022/02/17 03:36:47;;;;;;;0.40;0.40;;;;;;;12.59;64.34;94254.59;5080096;28;20232;-82
2022/02/17 03:39:14;;;;;;;0.40;0.40;;;;;;;12.64;64.18;94247.00;5079781;28;20813;-81
2022/02/17 03:41:41;;;;;;;0.40;0.40;;;;;;;12.62;63.98;94250.78;5079541;28;20232;-82
2022/02/17 03:44:07;;;;;;;0.30;0.30;;;;;;;12.66;64.36;94247.56;5079069;28;20816;-82
2022/02/17 03:46:35;;;;;;;0.40;0.40;;;;;;;12.64;64.24;94241.03;5079248;28;20265;-82
2022/02/17 03:49:01;;;;;;;3.17;0.50;;;;;;;12.64;64.02;94253.94;5079708;28;20205;-81
2022/02/17 03:51:28;;;;;;;0.30;0.30;;;;;;;12.60;64.19;94238.09;5078902;28;20240;-81
2022/02/17 03:53:54;;;;;;;1.43;0.40;;;;;;;12.59;64.20;94249.44;5078435;28;20224;-81
2022/02/17 03:56:21;;;;;;;0.40;0.40;;;;;;;12.59;64.04;94241.69;5078976;28;20699;-82
2022/02/17 03:59:03;;;;;;;0.40;0.40;;;;;;;12.55;64.17;94245.72;5078767;28;20246;-81
2022/02/17 04:01:31;;;;;;;0.30;0.30;;;;;;;12.52;64.43;94253.91;5078883;28;20936;-82
2022/02/17 04:04:00;;;;;;;0.37;0.37;;;;;;;12.58;64.26;94245.28;5078720;28;20723;-82
2022/02/17 04:06:27;;;;;;;0.40;0.40;;;;;;;12.57;63.92;94259.19;5075784;28;20201;-82
2022/02/17 04:08:53;;;;;;;0.40;0.40;;;;;;;12.56;64.17;94251.66;5075632;28;20205;-82
2022/02/17 04:11:19;;;;;;;0.40;0.40;;;;;;;12.56;63.88;94210.38;5075539;28;20232;-82
2022/02/17 04:13:46;;;;;;;0.40;0.40;;;;;;;12.54;64.18;94245.94;5075776;28;20687;-81
2022/02/17 04:16:15;;;;;;;0.87;0.40;;;;;;;12.61;64.05;94254.38;5076175;28;20209;-82
2022/02/17 04:18:42;;;;;;;0.40;0.40;;;;;;;12.56;64.31;94242.13;5076573;28;20204;-82
2022/02/17 04:21:10;;;;;;;0.40;0.40;;;;;;;12.53;64.80;94283.88;5075361;28;20228;-82
2022/02/17 04:23:37;;;;;;;0.40;0.40;;;;;;;12.48;64.95;94257.97;5075665;28;20204;-81
2022/02/17 04:26:03;;;;;;;0.30;0.30;;;;;;;12.51;64.82;94293.63;5075228;28;20234;-80
2022/02/17 04:28:30;;;;;;;0.40;0.40;;;;;;;12.47;65.16;94264.13;5075842;28;20254;-82
2022/02/17 04:30:56;;;;;;;0.63;0.40;;;;;;;12.52;65.00;94266.03;5074842;28;20708;-82
2022/02/17 04:33:23;;;;;;;0.40;0.40;;;;;;;12.54;65.12;94259.63;5074773;28;20756;-81
2022/02/17 04:35:49;;;;;;;0.30;0.30;;;;;;;12.49;65.12;94279.41;5075602;28;20205;-82
2022/02/17 04:38:17;;;;;;;0.30;0.30;;;;;;;12.48;65.29;94239.09;5075383;28;20201;-81
2022/02/17 04:43:27;;;;;;;0.30;0.30;;;;;;;12.48;65.34;94282.97;5074872;28;20231;-81
2022/02/17 04:45:54;;;;;;;0.40;0.40;;;;;;;12.54;65.37;94264.78;5075373;28;20205;-82
2022/02/17 04:48:20;;;;;;;0.30;0.30;;;;;;;12.48;65.47;94262.34;5075214;28;20208;-81
2022/02/17 04:50:47;;;;;;;0.40;0.40;;;;;;;12.43;65.44;94239.75;5073939;28;20625;-82
2022/02/17 04:53:13;;;;;;;0.40;0.40;;;;;;;12.47;65.71;94229.78;5075014;28;20282;-82
2022/02/17 04:55:41;;;;;;;0.40;0.40;;;;;;;12.45;65.74;94235.94;5075111;28;20205;-81
2022/02/17 04:58:07;;;;;;;0.50;0.50;;;;;;;12.51;65.77;94259.31;5075229;28;20208;-81
2022/02/17 05:00:34;;;;;;;0.40;0.40;;;;;;;12.45;65.86;94272.09;5075205;28;20622;-80
2022/02/17 05:03:00;;;;;;;0.40;0.40;;;;;;;12.40;66.12;94255.69;5075201;28;20221;-81
2022/02/17 05:05:27;;;;;;;0.40;0.40;;;;;;;12.47;66.54;94265.91;5074790;28;20251;-82
2022/02/17 05:07:53;;;;;;;0.30;0.30;;;;;;;12.48;66.51;94273.44;5074711;28;20715;-81
2022/02/17 05:10:20;;;;;;;1.33;0.40;;;;;;;12.45;66.73;94294.53;5075290;28;20201;-81
2022/02/17 05:12:47;;;;;;;0.30;0.30;;;;;;;12.43;67.07;94293.97;5074626;28;20228;-82
2022/02/17 05:15:14;;;;;;;0.33;0.33;;;;;;;12.39;67.32;94297.97;5074649;28;20209;-81
2022/02/17 05:17:40;;;;;;;0.33;0.33;;;;;;;12.38;67.84;94296.41;5073701;28;20606;-82
2022/02/17 05:20:08;;;;;;;0.40;0.40;;;;;;;12.42;68.02;94323.34;5073897;28;20216;-81
2022/02/17 05:22:40;;;;;;;4.83;0.40;;;;;;;12.34;68.39;94296.03;5075539;28;20233;-81
2022/02/17 05:25:07;;;;;;;0.40;0.40;;;;;;;12.28;68.63;94291.78;5078691;28;20212;-82
2022/02/17 05:27:34;;;;;;;0.40;0.40;;;;;;;12.27;68.90;94289.41;5079325;28;20239;-81
2022/02/17 05:30:02;;;;;;;0.40;0.40;;;;;;;12.32;69.28;94308.38;5076194;28;20197;-81
2022/02/17 05:32:28;;;;;;;0.97;0.60;;;;;;;12.31;69.19;94299.09;5079084;28;20229;-82
2022/02/17 05:34:54;;;;;;;0.37;0.37;;;;;;;12.37;68.87;94289.66;5080003;28;20200;-81
2022/02/17 05:37:21;;;;;;;0.40;0.40;;;;;;;12.28;69.22;94296.94;5082346;28;20201;-81
2022/02/17 05:39:47;;;;;;;0.40;0.40;;;;;;;12.27;69.49;94292.00;5080026;28;20402;-82
2022/02/17 05:42:14;;;;;;;1.13;0.40;;;;;;;12.22;69.73;94286.69;5077707;28;20236;-81
2022/02/17 05:44:40;;;;;;;0.77;0.40;;;;;;;12.29;69.85;94305.47;5075775;28;20671;-82
2022/02/17 05:47:09;;;;;;;0.63;0.50;;;;;;;12.21;70.29;94290.28;5075631;28;20208;-82
2022/02/17 05:49:35;;;;;;;0.30;0.30;;;;;;;12.25;70.26;94263.81;5073161;28;20204;-80
2022/02/17 05:52:02;;;;;;;0.40;0.40;;;;;;;12.22;70.48;94286.69;5069546;28;20695;-82
2022/02/17 05:54:28;;;;;;;0.40;0.40;;;;;;;12.26;70.48;94295.59;5074666;28;20247;-81
2022/02/17 05:56:55;;;;;;;0.50;0.50;;;;;;;12.21;70.78;94300.59;5074236;28;20197;-82
2022/02/17 05:59:21;;;;;;;0.40;0.40;;;;;;;12.20;71.01;94307.56;5075373;28;20243;-81
2022/02/17 06:01:48;;;;;;;0.40;0.40;;;;;;;12.17;71.39;94327.84;5068077;28;20271;-81
2022/02/17 06:04:15;;;;;;;1.17;0.40;;;;;;;12.23;71.42;94308.91;5070978;28;20208;-82
2022/02/17 06:06:42;;;;;;;0.40;0.40;;;;;;;12.31;70.59;94290.56;5059243;28;20201;-81
2022/02/17 06:09:08;;;;;;;0.40;0.40;;;;;;;12.21;71.22;94306.53;5054858;28;20216;-82
2022/02/17 06:11:35;;;;;;;0.60;0.50;;;;;;;12.24;71.30;94315.66;5074464;28;20224;-82
2022/02/17 06:14:01;;;;;;;0.40;0.40;;;;;;;12.24;70.84;94303.53;5075021;28;20224;-81
2022/02/17 06:16:28;;;;;;;0.40;0.40;;;;;;;12.19;70.99;94305.19;5072703;28;20197;-81
2022/02/17 06:18:54;;;;;;;0.40;0.40;;;;;;;12.20;71.45;94319.66;5074419;28;20208;-82
2022/02/17 06:21:22;;;;;;;0.50;0.50;;;;;;;12.20;71.72;94317.88;5073918;28;20239;-81
2022/02/17 06:23:48;;;;;;;0.40;0.40;;;;;;;12.25;71.37;94312.06;5074363;28;20193;-81
2022/02/17 06:26:15;;;;;;;0.40;0.40;;;;;;;12.24;71.23;94307.91;5074269;28;20583;-81
2022/02/17 06:28:41;;;;;;;0.43;0.40;;;;;;;12.20;71.56;94315.28;5073552;28;20235;-82
2022/02/17 06:31:18;;;;;;;0.40;0.40;;;;;;;12.21;71.39;94296.22;5073412;28;20228;-82
2022/02/17 06:33:45;;;;;;;0.47;0.43;;;;;;;12.16;72.00;94300.44;5073498;28;20216;-82
2022/02/17 06:36:15;;;;;;;0.40;0.40;;;;;;;12.20;71.95;94333.34;5073308;28;20334;-81
2022/02/17 06:38:43;;;;;;;0.40;0.40;;;;;;;12.21;71.57;94321.25;5073558;28;20207;-80
2022/02/17 06:41:09;;;;;;;0.40;0.40;;;;;;;12.22;71.88;94317.66;5073466;28;20224;-81
2022/02/17 06:43:36;;;;;;;1.40;1.30;;;;;;;12.19;72.08;94333.56;5073603;28;20208;-81
2022/02/17 06:46:03;;;;;;;0.50;0.50;;;;;;;12.17;71.97;94331.19;5073351;28;20219;-80
2022/02/17 06:48:29;;;;;;;0.33;0.33;;;;;;;12.19;71.73;94326.63;5074454;28;20330;-82
2022/02/17 06:50:57;;;;;;;0.40;0.40;;;;;;;12.23;71.50;94339.88;5074571;28;20208;-82
2022/02/17 06:53:23;;;;;;;1.13;0.40;;;;;;;12.28;71.39;94351.13;5075486;28;20264;-82
2022/02/17 06:55:51;;;;;;;0.50;0.50;;;;;;;12.26;71.11;94327.34;5070036;28;20239;-82
2022/02/17 06:58:17;;;;;;;0.33;0.33;;;;;;;12.21;71.32;94314.28;5075464;28;20208;-81
2022/02/17 07:00:44;;;;;;;0.40;0.40;;;;;;;12.19;71.51;94349.03;5074591;28;20204;-82
2022/02/17 07:03:10;;;;;;;0.40;0.40;;;;;;;12.25;71.28;94337.88;5075093;28;20199;-82
2022/02/17 07:05:37;;;;;;;0.40;0.40;;;;;;;12.52;70.02;94333.16;5075083;28;20200;-81
2022/02/17 07:08:05;;;;;;;0.40;0.40;;;;;;;12.74;69.01;94352.31;5075787;28;20200;-82
2022/02/17 07:13:17;;;;;;;0.40;0.40;;;;;;;13.02;68.33;94360.28;5074780;28;20325;-81
2022/02/17 07:15:45;;;;;;;0.40;0.40;;;;;;;13.16;68.00;94373.81;5074894;28;20676;-80
2022/02/17 07:18:11;;;;;;;0.80;0.80;;;;;;;13.13;68.42;94382.75;5074909;28;20204;-80
2022/02/17 07:20:40;;;;;;;0.90;0.90;;;;;;;12.97;69.10;94395.50;5073881;28;20205;-82
2022/02/17 07:23:06;;;;;;;0.40;0.40;;;;;;;12.81;70.22;94386.59;5074781;28;20327;-82
2022/02/17 07:25:35;;;;;;;0.50;0.50;;;;;;;12.70;70.65;94372.63;5067181;28;20605;-81
2022/02/17 07:28:01;;;;;;;0.40;0.40;;;;;;;12.66;70.74;94376.66;5073320;28;20204;-81
2022/02/17 07:30:30;;;;;;;0.40;0.40;;;;;;;12.66;71.05;94379.25;5074338;28;20254;-82
2022/02/17 07:32:56;;;;;;;0.77;0.50;;;;;;;12.63;71.24;94381.47;5073121;28;20235;-81
2022/02/17 07:35:23;;;;;;;0.40;0.40;;;;;;;12.66;71.03;94388.78;5073657;28;20568;-82
2022/02/17 07:37:49;;;;;;;0.80;0.50;;;;;;;12.75;70.63;94377.91;5073418;28;20212;-82
2022/02/17 07:40:16;;;;;;;0.50;0.50;;;;;;;13.08;69.68;94337.94;5073762;28;20201;-82
2022/02/17 07:42:45;;;;;;;0.40;0.40;;;;;;;13.26;69.53;94381.81;5076437;28;20236;-81
2022/02/17 07:45:12;;;;;;;0.40;0.40;;;;;;;13.11;70.57;94366.69;5077115;28;20204;-82
2022/02/17 07:47:44;;;;;;;0.73;0.47;;;;;;;12.84;71.20;94373.25;5076524;28;20738;-84
2022/02/17 07:50:11;;;;;;;0.40;0.40;;;;;;;12.89;70.91;94375.97;5076137;28;20283;-82
2022/02/17 07:52:38;;;;;;;0.47;0.47;;;;;;;13.44;68.76;94393.88;5076568;28;20232;-81
2022/02/17 07:55:05;;;;;;;0.50;0.50;;;;;;;13.43;67.83;94380.16;5076657;28;20220;-81
2022/02/17 07:57:32;;;;;;;0.50;0.50;;;;;;;13.33;67.72;94366.97;5077567;28;20201;-82
2022/02/17 07:59:58;;;;;;;0.40;0.40;;;;;;;13.14;67.83;94371.41;5077490;28;20288;-80
2022/02/17 08:02:25;;;;;;;0.40;0.40;;;;;;;13.06;67.77;94387.25;5076325;28;20244;-82
2022/02/17 08:04:52;;;;;;;0.40;0.40;;;;;;;13.05;67.61;94385.66;5076082;28;20196;-81
2022/02/17 08:07:19;;;;;;;1.20;0.40;;;;;;;13.10;67.65;94383.19;5076172;28;20204;-82
2022/02/17 08:09:45;;;;;;;0.67;0.50;;;;;;;13.14;67.47;94376.56;5076627;28;20201;-82
2022/02/17 08:12:12;;;;;;;0.50;0.50;;;;;;;13.10;67.60;94416.00;5076264;28;20236;-81
2022/02/17 08:14:38;;;;;;;0.60;0.50;;;;;;;13.03;69.13;94426.44;5075626;28;20240;-82
2022/02/17 08:17:05;;;;;;;0.47;0.43;;;;;;;12.95;71.89;94433.69;5076741;28;20209;-81
2022/02/17 08:19:33;;;;;;;0.40;0.40;;;;;;;12.76;75.50;94469.91;5076435;28;20209;-82
2022/02/17 08:22:02;;;;;;;0.50;0.50;;;;;;;12.66;77.98;94445.59;5075565;28;20278;-82
2022/02/17 08:24:29;;;;;;;0.40;0.40;;;;;;;12.56;79.61;94434.97;5075067;28;20232;-81
2022/02/17 08:26:56;;;;;;;0.50;0.50;;;;;;;12.58;81.30;94466.53;5076867;28;20568;-81
2022/02/17 08:29:23;;;;;;;0.40;0.40;;;;;;;12.47;81.98;94475.81;5093004;28;20204;-81
2022/02/17 08:31:50;;;;;;;2.73;2.17;;;;;;;12.34;84.47;94460.44;5085334;28;20837;-81
2022/02/17 08:34:16;;;;;;;0.40;0.40;;;;;;;12.34;85.41;94478.50;5076961;28;20224;-82
2022/02/17 08:36:43;;;;;;;1.23;0.80;;;;;;;12.44;86.13;94477.03;5077100;28;20208;-80
2022/02/17 08:39:11;;;;;;;0.87;0.70;;;;;;;12.36;88.76;94477.28;5076793;28;20204;-81
2022/02/17 08:41:38;;;;;;;0.83;0.50;;;;;;;12.28;87.02;94485.34;5076546;28;20233;-82
2022/02/17 08:44:05;;;;;;;0.90;0.53;;;;;;;12.26;90.19;94486.53;5076479;28;20200;-81
2022/02/17 08:46:32;;;;;;;0.40;0.40;;;;;;;12.28;89.83;94492.28;5076577;28;20303;-82
2022/02/17 08:48:59;;;;;;;1.30;0.50;;;;;;;12.14;89.76;94504.50;5077359;28;20572;-82
2022/02/17 08:51:29;;;;;;;0.50;0.50;;;;;;;12.35;87.28;94509.25;5074998;28;20814;-81
2022/02/17 08:53:55;;;;;;;0.53;0.53;;;;;;;12.73;84.28;94524.56;5076260;28;20228;-82
2022/02/17 08:56:23;;;;;;;0.40;0.40;;;;;;;12.73;82.02;94510.84;5079599;28;20227;-82
2022/02/17 08:58:50;;;;;;;0.37;0.37;;;;;;;12.82;82.14;94512.16;5075447;28;20763;-81
2022/02/17 09:01:16;;;;;;;0.50;0.50;;;;;;;13.34;79.44;94531.41;5075466;28;20707;-82
2022/02/17 09:03:43;;;;;;;0.97;0.53;;;;;;;13.32;78.09;94537.81;5075386;28;20766;-82
2022/02/17 09:06:09;;;;;;;1.63;1.10;;;;;;;13.11;79.03;94557.13;5076231;28;20254;-82
2022/02/17 09:08:36;;;;;;;0.53;0.50;;;;;;;12.65;83.59;94545.53;5075665;28;20205;-82
2022/02/17 09:11:04;;;;;;;0.50;0.50;;;;;;;12.47;89.08;94552.47;5074872;28;20590;-82
2022/02/17 09:13:32;;;;;;;0.47;0.43;;;;;;;12.29;91.58;94555.81;5054763;28;20219;-81
2022/02/17 09:15:58;;;;;;;0.90;0.50;;;;;;;12.21;93.03;94572.31;5055242;28;20220;-82
2022/02/17 09:18:25;;;;;;;1.17;0.60;;;;;;;12.20;93.75;94572.53;5054820;28;20870;-82
2022/02/17 09:20:51;;;;;;;0.50;0.50;;;;;;;12.10;97.22;94573.03;5061612;28;20200;-81
2022/02/17 09:23:19;;;;;;;0.67;0.60;;;;;;;12.06;98.62;94582.97;5074401;28;20223;-80
2022/02/17 09:25:45;;;;;;;0.57;0.50;;;;;;;11.85;100.00;94557.53;5074970;28;20201;-82
2022/02/17 09:28:12;;;;;;;1.30;0.60;;;;;;;11.85;100.00;94549.00;5074087;28;20200;-82
2022/02/17 09:30:39;;;;;;;0.53;0.53;;;;;;;11.83;100.00;94562.09;5075062;28;20208;-81
2022/02/17 09:33:06;;;;;;;0.57;0.50;;;;;;;11.91;100.00;94553.31;5073547;28;20236;-82
2022/02/17 09:35:33;;;;;;;0.83;0.60;;;;;;;11.99;100.00;94546.09;5074541;28;20229;-82
2022/02/17 09:37:59;;;;;;;1.03;0.60;;;;;;;11.94;100.00;94560.63;5074972;28;20205;-82
2022/02/17 09:40:26;;;;;;;0.57;0.57;;;;;;;11.86;100.00;94574.59;5074194;28;20259;-81
2022/02/17 09:42:52;;;;;;;0.87;0.60;;;;;;;11.73;100.00;94572.06;5073688;28;20236;-82
2022/02/17 09:45:20;;;;;;;0.83;0.60;;;;;;;11.64;100.00;94558.63;5074723;28;20196;-81
2022/02/17 09:47:48;;;;;;;0.50;0.50;;;;;;;11.62;100.00;94554.66;5074239;28;20250;-82
2022/02/17 09:50:16;;;;;;;1.73;0.80;;;;;;;11.64;100.00;94583.63;5074510;28;20201;-81
2022/02/17 09:52:44;;;;;;;0.93;0.70;;;;;;;11.54;100.00;94578.91;5073884;28;20239;-81
2022/02/17 09:55:12;;;;;;;0.63;0.60;;;;;;;11.55;100.00;94567.59;5073668;28;20223;-81
2022/02/17 09:57:38;;;;;;;1.13;0.57;;;;;;;11.46;100.00;94594.63;5074060;28;20208;-81
2022/02/17 10:00:06;;;;;;;1.87;0.70;;;;;;;11.39;100.00;94575.81;5073791;28;20208;-80
2022/02/17 10:02:33;;;;;;;0.70;0.70;;;;;;;11.47;100.00;94606.50;5073448;28;20236;-82
2022/02/17 10:05:05;;;;;;;2.57;1.80;;;;;;;11.46;100.00;94617.03;5073302;28;20200;-82
2022/02/17 10:07:32;;;;;;;2.47;1.67;;;;;;;11.43;100.00;94625.94;5073923;28;20223;-81
2022/02/17 10:10:00;;;;;;;1.23;0.63;;;;;;;11.45;100.00;94625.75;5074069;28;20201;-81
2022/02/17 10:12:54;;;;;;;0.73;0.60;;;;;;;11.46;100.00;94612.66;5073434;28;20787;-82
2022/02/17 10:15:33;;;;;;;0.50;0.50;;;;;;;11.47;100.00;94624.56;5073630;28;20217;-82
2022/02/17 10:18:01;;;;;;;0.97;0.73;;;;;;;11.55;100.00;94620.94;5073620;28;20223;-81
2022/02/17 10:20:29;;;;;;;1.23;0.93;;;;;;;11.51;100.00;94635.25;5073831;28;20296;-81
2022/02/17 10:23:07;;;;;;;1.63;0.93;;;;;;;11.37;100.00;94647.38;5072711;28;20259;-82
2022/02/17 10:25:33;;;;;;;3.30;1.10;;;;;;;11.28;100.00;94662.28;5073629;28;20283;-81
2022/02/17 10:28:12;;;;;;;1.40;0.83;;;;;;;11.10;100.00;94667.28;5073821;28;20204;-82
2022/02/17 10:30:39;;;;;;;1.67;0.80;;;;;;;10.99;100.00;94678.19;5073312;28;20291;-82
2022/02/17 10:33:07;;;;;;;1.90;0.90;;;;;;;10.93;100.00;94663.56;5073104;28;20300;-81
2022/02/17 10:35:35;;;;;;;3.37;1.10;;;;;;;10.90;100.00;94669.91;5072386;28;20270;-81
2022/02/17 10:38:05;;;;;;;1.43;0.90;;;;;;;10.98;100.00;94671.47;5073398;28;20575;-81
2022/02/17 10:40:33;;;;;;;1.43;1.10;;;;;;;11.01;100.00;94679.59;5073134;28;20203;-82
2022/02/17 10:43:01;;;;;;;4.47;1.43;;;;;;;10.97;100.00;94680.97;5073061;28;20240;-82
2022/02/17 10:45:27;;;;;;;3.17;1.23;;;;;;;11.01;100.00;94691.66;5072377;28;20201;-82
2022/02/17 10:47:54;;;;;;;1.77;1.23;;;;;;;10.94;100.00;94696.06;5073759;28;20696;-82
2022/02/17 10:50:21;;;;;;;2.50;1.17;;;;;;;10.90;100.00;94712.91;5072808;28;20216;-81
2022/02/17 10:52:48;;;;;;;2.63;1.20;;;;;;;10.83;100.00;94704.38;5072801;28;20310;-81
2022/02/17 10:55:18;;;;;;;4.07;1.23;;;;;;;10.85;100.00;94730.72;5072187;28;20220;-81
2022/02/17 10:57:45;;;;;;;1.33;1.23;;;;;;;10.71;100.00;94720.44;5073017;28;20250;-82
2022/02/17 11:00:13;;;;;;;4.20;1.50;;;;;;;10.68;100.00;94725.19;5073772;28;20262;-82
2022/02/17 11:02:40;;;;;;;3.20;1.10;;;;;;;10.61;100.00;94748.34;5072879;28;20262;-81
2022/02/17 11:05:08;;;;;;;1.73;1.10;;;;;;;10.61;99.86;94748.34;5072905;28;20687;-81
2022/02/17 11:07:36;;;;;;;1.53;1.00;;;;;;;10.54;96.03;94739.81;5073395;28;20258;-81
2022/02/17 11:10:05;;;;;;;2.90;1.20;;;;;;;10.64;97.66;94755.66;5074517;28;20204;-82
2022/02/17 11:12:32;;;;;;;2.43;0.97;;;;;;;10.84;96.81;94753.09;5073968;28;20236;-82
2022/02/17 11:14:58;;;;;;;3.03;1.23;;;;;;;10.90;95.44;94754.09;5082568;28;20212;-81
2022/02/17 11:17:26;;;;;;;2.17;1.00;;;;;;;11.04;94.11;94777.06;5094135;28;20196;-81
2022/02/17 11:19:53;;;;;;;4.30;1.10;;;;;;;11.19;95.14;94763.19;5079472;28;20346;-82
2022/02/17 11:22:20;;;;;;;4.80;1.50;;;;;;;11.44;91.03;94774.44;5078082;28;20236;-80
2022/02/17 11:24:48;;;;;;;3.53;1.20;;;;;;;11.73;90.36;94765.47;5076924;28;20599;-81
2022/02/17 11:27:17;;;;;;;2.63;1.20;;;;;;;11.70;88.24;94779.56;5077835;28;20232;-81
2022/02/17 11:29:44;;;;;;;4.40;1.20;;;;;;;11.73;86.60;94793.81;5077364;28;20205;-80
2022/02/17 11:32:14;;;;;;;3.70;1.27;;;;;;;11.63;87.64;94776.19;5076567;28;20235;-81
2022/02/17 11:34:43;;;;;;;4.03;1.67;;;;;;;11.62;87.45;94779.75;5077184;28;20231;-82
2022/02/17 11:37:32;;;;;;;4.10;1.60;;;;;;;11.68;83.10;94780.75;5077372;28;20287;-81